sensor_id;sensor_type;location;lat;lon;timestamp;P1;durP1;ratioP1;P2;durP2;ratioP2
13014;SDS011;6573;57.696;11.950;2023-05-20T00:01:40;20.47;;;9.50;;
13014;SDS011;6573;57.696;11.950;2023-05-20T00:04:08;16.00;;;9.13;;
13014;SDS011;6573;57.696;11.950;2023-05-20T00:06:39;15.50;;;9.20;;
13014;SDS011;6573;57.696;11.950;2023-05-20T00:09:07;18.13;;;10.67;;
13014;SDS011;6573;57.696;11.950;2023-05-20T00:11:36;14.53;;;10.00;;
13014;SDS011;6573;57.696;11.950;2023-05-20T00:14:04;17.17;;;11.10;;
13014;SDS011;6573;57.696;11.950;2023-05-20T00:16:33;18.53;;;12.20;;
13014;SDS011;6573;57.696;11.950;2023-05-20T00:19:02;16.03;;;9.60;;
13014;SDS011;6573;57.696;11.950;2023-05-20T00:21:30;16.33;;;9.67;;
13014;SDS011;6573;57.696;11.950;2023-05-20T00:24:00;19.40;;;10.30;;
13014;SDS011;6573;57.696;11.950;2023-05-20T00:26:29;16.70;;;10.37;;
13014;SDS011;6573;57.696;11.950;2023-05-20T00:28:57;16.03;;;9.47;;
13014;SDS011;6573;57.696;11.950;2023-05-20T00:31:27;16.73;;;9.97;;
13014;SDS011;6573;57.696;11.950;2023-05-20T00:33:55;17.40;;;10.90;;
13014;SDS011;6573;57.696;11.950;2023-05-20T00:36:23;15.13;;;10.30;;
13014;SDS011;6573;57.696;11.950;2023-05-20T00:38:52;15.77;;;10.53;;
13014;SDS011;6573;57.696;11.950;2023-05-20T00:41:22;16.57;;;10.03;;
13014;SDS011;6573;57.696;11.950;2023-05-20T00:43:52;19.50;;;10.90;;
13014;SDS011;6573;57.696;11.950;2023-05-20T00:46:21;18.70;;;10.73;;
13014;SDS011;6573;57.696;11.950;2023-05-20T00:48:50;22.67;;;10.03;;
13014;SDS011;6573;57.696;11.950;2023-05-20T00:51:19;21.03;;;10.97;;
13014;SDS011;6573;57.696;11.950;2023-05-20T00:53:48;17.17;;;9.50;;
13014;SDS011;6573;57.696;11.950;2023-05-20T00:56:17;20.27;;;9.30;;
13014;SDS011;6573;57.696;11.950;2023-05-20T00:58:48;17.57;;;11.60;;
13014;SDS011;6573;57.696;11.950;2023-05-20T01:01:17;14.13;;;9.40;;
13014;SDS011;6573;57.696;11.950;2023-05-20T01:03:45;13.87;;;9.17;;
13014;SDS011;6573;57.696;11.950;2023-05-20T01:06:14;15.03;;;9.30;;
13014;SDS011;6573;57.696;11.950;2023-05-20T01:08:43;14.40;;;8.90;;
13014;SDS011;6573;57.696;11.950;2023-05-20T01:11:12;14.77;;;8.27;;
13014;SDS011;6573;57.696;11.950;2023-05-20T01:13:45;13.03;;;8.37;;
13014;SDS011;6573;57.696;11.950;2023-05-20T01:16:18;15.43;;;9.10;;
13014;SDS011;6573;57.696;11.950;2023-05-20T01:18:50;12.67;;;8.90;;
13014;SDS011;6573;57.696;11.950;2023-05-20T01:21:22;13.77;;;10.63;;
13014;SDS011;6573;57.696;11.950;2023-05-20T01:23:53;14.37;;;8.33;;
13014;SDS011;6573;57.696;11.950;2023-05-20T01:26:21;13.30;;;8.60;;
13014;SDS011;6573;57.696;11.950;2023-05-20T01:28:52;17.40;;;10.03;;
13014;SDS011;6573;57.696;11.950;2023-05-20T01:31:23;10.87;;;8.07;;
13014;SDS011;6573;57.696;11.950;2023-05-20T01:33:57;17.00;;;8.97;;
13014;SDS011;6573;57.696;11.950;2023-05-20T01:36:27;14.17;;;9.97;;
13014;SDS011;6573;57.696;11.950;2023-05-20T01:38:58;15.77;;;11.20;;
13014;SDS011;6573;57.696;11.950;2023-05-20T01:41:29;15.00;;;9.80;;
13014;SDS011;6573;57.696;11.950;2023-05-20T01:44:00;14.17;;;8.37;;
13014;SDS011;6573;57.696;11.950;2023-05-20T01:46:31;13.10;;;10.00;;
13014;SDS011;6573;57.696;11.950;2023-05-20T01:49:00;15.90;;;7.63;;
13014;SDS011;6573;57.696;11.950;2023-05-20T01:51:28;13.57;;;8.43;;
13014;SDS011;6573;57.696;11.950;2023-05-20T01:54:02;14.93;;;8.17;;
13014;SDS011;6573;57.696;11.950;2023-05-20T01:56:30;13.73;;;8.20;;
13014;SDS011;6573;57.696;11.950;2023-05-20T01:58:59;10.67;;;7.83;;
13014;SDS011;6573;57.696;11.950;2023-05-20T02:01:28;14.80;;;9.03;;
13014;SDS011;6573;57.696;11.950;2023-05-20T02:03:56;15.23;;;8.63;;
13014;SDS011;6573;57.696;11.950;2023-05-20T02:06:24;13.17;;;8.30;;
13014;SDS011;6573;57.696;11.950;2023-05-20T02:08:53;15.93;;;9.00;;
13014;SDS011;6573;57.696;11.950;2023-05-20T02:11:23;12.13;;;8.40;;
13014;SDS011;6573;57.696;11.950;2023-05-20T02:13:52;11.70;;;8.27;;
13014;SDS011;6573;57.696;11.950;2023-05-20T02:16:20;12.37;;;8.17;;
13014;SDS011;6573;57.696;11.950;2023-05-20T02:18:50;11.57;;;7.20;;
13014;SDS011;6573;57.696;11.950;2023-05-20T02:21:19;11.90;;;8.83;;
13014;SDS011;6573;57.696;11.950;2023-05-20T02:23:47;13.30;;;7.27;;
13014;SDS011;6573;57.696;11.950;2023-05-20T02:26:16;12.83;;;7.87;;
13014;SDS011;6573;57.696;11.950;2023-05-20T02:28:47;12.27;;;7.50;;
13014;SDS011;6573;57.696;11.950;2023-05-20T02:31:16;10.47;;;7.17;;
13014;SDS011;6573;57.696;11.950;2023-05-20T02:33:44;11.73;;;7.27;;
13014;SDS011;6573;57.696;11.950;2023-05-20T02:36:13;13.03;;;7.47;;
13014;SDS011;6573;57.696;11.950;2023-05-20T02:38:43;12.53;;;7.77;;
13014;SDS011;6573;57.696;11.950;2023-05-20T02:41:12;11.70;;;8.60;;
13014;SDS011;6573;57.696;11.950;2023-05-20T02:43:40;11.93;;;7.30;;
13014;SDS011;6573;57.696;11.950;2023-05-20T02:46:11;14.10;;;9.37;;
13014;SDS011;6573;57.696;11.950;2023-05-20T02:48:41;10.30;;;7.13;;
13014;SDS011;6573;57.696;11.950;2023-05-20T02:51:09;12.10;;;7.77;;
13014;SDS011;6573;57.696;11.950;2023-05-20T02:53:37;13.43;;;8.73;;
13014;SDS011;6573;57.696;11.950;2023-05-20T02:56:06;10.87;;;7.10;;
13014;SDS011;6573;57.696;11.950;2023-05-20T02:58:35;11.90;;;7.80;;
13014;SDS011;6573;57.696;11.950;2023-05-20T03:01:03;13.30;;;7.60;;
13014;SDS011;6573;57.696;11.950;2023-05-20T03:03:33;12.33;;;7.73;;
13014;SDS011;6573;57.696;11.950;2023-05-20T03:06:03;17.50;;;8.90;;
13014;SDS011;6573;57.696;11.950;2023-05-20T03:08:32;14.33;;;9.77;;
13014;SDS011;6573;57.696;11.950;2023-05-20T03:11:00;13.03;;;7.50;;
13014;SDS011;6573;57.696;11.950;2023-05-20T03:13:31;11.83;;;8.20;;
13014;SDS011;6573;57.696;11.950;2023-05-20T03:16:00;11.30;;;7.57;;
13014;SDS011;6573;57.696;11.950;2023-05-20T03:18:31;14.93;;;8.40;;
13014;SDS011;6573;57.696;11.950;2023-05-20T03:21:01;15.67;;;8.20;;
13014;SDS011;6573;57.696;11.950;2023-05-20T03:23:29;12.00;;;7.93;;
13014;SDS011;6573;57.696;11.950;2023-05-20T03:25:58;12.90;;;8.10;;
13014;SDS011;6573;57.696;11.950;2023-05-20T03:28:26;13.43;;;7.80;;
13014;SDS011;6573;57.696;11.950;2023-05-20T03:30:57;14.13;;;9.90;;
13014;SDS011;6573;57.696;11.950;2023-05-20T03:33:25;13.73;;;10.33;;
13014;SDS011;6573;57.696;11.950;2023-05-20T03:35:56;11.80;;;7.77;;
13014;SDS011;6573;57.696;11.950;2023-05-20T03:38:24;14.90;;;9.43;;
13014;SDS011;6573;57.696;11.950;2023-05-20T03:40:53;12.07;;;8.20;;
13014;SDS011;6573;57.696;11.950;2023-05-20T03:43:22;11.40;;;7.73;;
13014;SDS011;6573;57.696;11.950;2023-05-20T03:45:50;10.47;;;7.77;;
13014;SDS011;6573;57.696;11.950;2023-05-20T03:48:19;14.00;;;7.73;;
13014;SDS011;6573;57.696;11.950;2023-05-20T03:50:48;13.67;;;10.07;;
13014;SDS011;6573;57.696;11.950;2023-05-20T03:53:18;12.17;;;7.90;;
13014;SDS011;6573;57.696;11.950;2023-05-20T03:56:00;10.70;;;8.00;;
13014;SDS011;6573;57.696;11.950;2023-05-20T03:58:28;12.00;;;7.90;;
13014;SDS011;6573;57.696;11.950;2023-05-20T04:00:56;13.60;;;7.70;;
13014;SDS011;6573;57.696;11.950;2023-05-20T04:03:25;12.57;;;8.57;;
13014;SDS011;6573;57.696;11.950;2023-05-20T04:05:54;11.77;;;7.90;;
13014;SDS011;6573;57.696;11.950;2023-05-20T04:08:24;13.07;;;9.27;;
13014;SDS011;6573;57.696;11.950;2023-05-20T04:10:54;13.30;;;8.87;;
13014;SDS011;6573;57.696;11.950;2023-05-20T04:13:23;11.47;;;8.30;;
13014;SDS011;6573;57.696;11.950;2023-05-20T04:15:52;12.43;;;7.87;;
13014;SDS011;6573;57.696;11.950;2023-05-20T04:18:21;9.50;;;7.47;;
13014;SDS011;6573;57.696;11.950;2023-05-20T04:20:52;14.70;;;7.70;;
13014;SDS011;6573;57.696;11.950;2023-05-20T04:23:21;12.20;;;8.03;;
13014;SDS011;6573;57.696;11.950;2023-05-20T04:25:51;11.00;;;7.17;;
13014;SDS011;6573;57.696;11.950;2023-05-20T04:28:22;14.10;;;7.40;;
13014;SDS011;6573;57.696;11.950;2023-05-20T04:30:57;13.23;;;7.70;;
13014;SDS011;6573;57.696;11.950;2023-05-20T04:33:28;13.93;;;8.00;;
13014;SDS011;6573;57.696;11.950;2023-05-20T04:35:58;20.63;;;8.17;;
13014;SDS011;6573;57.696;11.950;2023-05-20T04:38:28;13.33;;;8.10;;
13014;SDS011;6573;57.696;11.950;2023-05-20T04:40:59;9.50;;;7.00;;
13014;SDS011;6573;57.696;11.950;2023-05-20T04:43:29;12.40;;;7.50;;
13014;SDS011;6573;57.696;11.950;2023-05-20T04:45:59;12.70;;;7.90;;
13014;SDS011;6573;57.696;11.950;2023-05-20T04:48:31;10.37;;;7.63;;
13014;SDS011;6573;57.696;11.950;2023-05-20T04:51:00;11.57;;;7.43;;
13014;SDS011;6573;57.696;11.950;2023-05-20T04:53:31;10.77;;;7.40;;
13014;SDS011;6573;57.696;11.950;2023-05-20T04:56:03;10.57;;;7.23;;
13014;SDS011;6573;57.696;11.950;2023-05-20T04:58:32;12.03;;;8.73;;
13014;SDS011;6573;57.696;11.950;2023-05-20T05:01:01;12.93;;;8.60;;
13014;SDS011;6573;57.696;11.950;2023-05-20T05:03:29;11.30;;;8.63;;
13014;SDS011;6573;57.696;11.950;2023-05-20T05:06:02;9.67;;;6.87;;
13014;SDS011;6573;57.696;11.950;2023-05-20T05:08:30;10.33;;;6.97;;
13014;SDS011;6573;57.696;11.950;2023-05-20T05:10:59;13.27;;;7.37;;
13014;SDS011;6573;57.696;11.950;2023-05-20T05:13:30;13.97;;;7.40;;
13014;SDS011;6573;57.696;11.950;2023-05-20T05:15:58;11.70;;;8.67;;
13014;SDS011;6573;57.696;11.950;2023-05-20T05:18:26;12.03;;;7.37;;
13014;SDS011;6573;57.696;11.950;2023-05-20T05:20:58;10.97;;;7.13;;
13014;SDS011;6573;57.696;11.950;2023-05-20T05:23:27;12.30;;;7.47;;
13014;SDS011;6573;57.696;11.950;2023-05-20T05:25:56;11.70;;;7.20;;
13014;SDS011;6573;57.696;11.950;2023-05-20T05:28:25;12.00;;;7.67;;
13014;SDS011;6573;57.696;11.950;2023-05-20T05:30:55;12.57;;;7.60;;
13014;SDS011;6573;57.696;11.950;2023-05-20T05:33:23;10.93;;;7.40;;
13014;SDS011;6573;57.696;11.950;2023-05-20T05:35:52;10.43;;;6.90;;
13014;SDS011;6573;57.696;11.950;2023-05-20T05:38:22;14.60;;;7.93;;
13014;SDS011;6573;57.696;11.950;2023-05-20T05:40:50;10.97;;;7.07;;
13014;SDS011;6573;57.696;11.950;2023-05-20T05:43:19;12.30;;;6.90;;
13014;SDS011;6573;57.696;11.950;2023-05-20T05:45:48;9.97;;;6.67;;
13014;SDS011;6573;57.696;11.950;2023-05-20T05:48:17;12.63;;;7.50;;
13014;SDS011;6573;57.696;11.950;2023-05-20T05:50:46;10.97;;;7.53;;
13014;SDS011;6573;57.696;11.950;2023-05-20T05:53:14;13.03;;;7.57;;
13014;SDS011;6573;57.696;11.950;2023-05-20T05:55:45;13.10;;;6.93;;
13014;SDS011;6573;57.696;11.950;2023-05-20T05:58:13;11.90;;;7.70;;
13014;SDS011;6573;57.696;11.950;2023-05-20T06:00:42;12.87;;;7.07;;
13014;SDS011;6573;57.696;11.950;2023-05-20T06:03:13;9.90;;;7.33;;
13014;SDS011;6573;57.696;11.950;2023-05-20T06:05:45;11.07;;;7.60;;
13014;SDS011;6573;57.696;11.950;2023-05-20T06:08:14;12.33;;;6.97;;
13014;SDS011;6573;57.696;11.950;2023-05-20T06:10:46;12.03;;;7.67;;
13014;SDS011;6573;57.696;11.950;2023-05-20T06:13:15;9.63;;;6.90;;
13014;SDS011;6573;57.696;11.950;2023-05-20T06:15:44;11.53;;;6.97;;
13014;SDS011;6573;57.696;11.950;2023-05-20T06:18:13;13.83;;;6.83;;
13014;SDS011;6573;57.696;11.950;2023-05-20T06:20:41;10.70;;;6.57;;
13014;SDS011;6573;57.696;11.950;2023-05-20T06:23:11;14.47;;;6.70;;
13014;SDS011;6573;57.696;11.950;2023-05-20T06:25:39;8.70;;;6.30;;
13014;SDS011;6573;57.696;11.950;2023-05-20T06:28:07;12.00;;;6.90;;
13014;SDS011;6573;57.696;11.950;2023-05-20T06:30:36;12.37;;;6.47;;
13014;SDS011;6573;57.696;11.950;2023-05-20T06:33:04;9.63;;;6.30;;
13014;SDS011;6573;57.696;11.950;2023-05-20T06:35:32;9.53;;;6.63;;
13014;SDS011;6573;57.696;11.950;2023-05-20T06:38:01;10.47;;;6.17;;
13014;SDS011;6573;57.696;11.950;2023-05-20T06:40:31;11.43;;;5.97;;
13014;SDS011;6573;57.696;11.950;2023-05-20T06:42:59;8.90;;;6.23;;
13014;SDS011;6573;57.696;11.950;2023-05-20T06:45:28;8.83;;;6.03;;
13014;SDS011;6573;57.696;11.950;2023-05-20T06:47:56;10.13;;;6.17;;
13014;SDS011;6573;57.696;11.950;2023-05-20T06:50:26;11.70;;;5.97;;
13014;SDS011;6573;57.696;11.950;2023-05-20T06:52:55;12.43;;;5.10;;
13014;SDS011;6573;57.696;11.950;2023-05-20T06:55:25;9.97;;;5.20;;
13014;SDS011;6573;57.696;11.950;2023-05-20T06:57:55;9.90;;;5.10;;
13014;SDS011;6573;57.696;11.950;2023-05-20T07:00:24;9.43;;;5.50;;
13014;SDS011;6573;57.696;11.950;2023-05-20T07:02:55;7.87;;;4.87;;
13014;SDS011;6573;57.696;11.950;2023-05-20T07:05:26;7.77;;;4.70;;
13014;SDS011;6573;57.696;11.950;2023-05-20T07:07:55;8.70;;;4.93;;
13014;SDS011;6573;57.696;11.950;2023-05-20T07:10:23;9.00;;;5.17;;
13014;SDS011;6573;57.696;11.950;2023-05-20T07:12:51;8.27;;;5.10;;
13014;SDS011;6573;57.696;11.950;2023-05-20T07:15:21;8.67;;;5.10;;
13014;SDS011;6573;57.696;11.950;2023-05-20T07:17:50;11.57;;;5.13;;
13014;SDS011;6573;57.696;11.950;2023-05-20T07:20:18;6.07;;;4.30;;
13014;SDS011;6573;57.696;11.950;2023-05-20T07:22:47;6.90;;;4.60;;
13014;SDS011;6573;57.696;11.950;2023-05-20T07:25:16;6.67;;;4.80;;
13014;SDS011;6573;57.696;11.950;2023-05-20T07:27:45;9.03;;;4.80;;
13014;SDS011;6573;57.696;11.950;2023-05-20T07:30:13;7.80;;;4.37;;
13014;SDS011;6573;57.696;11.950;2023-05-20T07:32:43;8.40;;;4.90;;
13014;SDS011;6573;57.696;11.950;2023-05-20T07:35:11;8.00;;;3.50;;
13014;SDS011;6573;57.696;11.950;2023-05-20T07:37:40;5.13;;;3.97;;
13014;SDS011;6573;57.696;11.950;2023-05-20T07:40:08;8.03;;;4.13;;
13014;SDS011;6573;57.696;11.950;2023-05-20T07:42:37;4.80;;;3.80;;
13014;SDS011;6573;57.696;11.950;2023-05-20T07:45:06;6.10;;;3.20;;
13014;SDS011;6573;57.696;11.950;2023-05-20T07:47:35;5.87;;;3.30;;
13014;SDS011;6573;57.696;11.950;2023-05-20T07:50:05;5.70;;;3.67;;
13014;SDS011;6573;57.696;11.950;2023-05-20T07:52:34;5.93;;;3.70;;
13014;SDS011;6573;57.696;11.950;2023-05-20T07:55:21;4.07;;;3.67;;
13014;SDS011;6573;57.696;11.950;2023-05-20T07:57:50;7.27;;;3.80;;
13014;SDS011;6573;57.696;11.950;2023-05-20T08:00:19;6.37;;;3.60;;
13014;SDS011;6573;57.696;11.950;2023-05-20T08:02:48;5.30;;;4.20;;
13014;SDS011;6573;57.696;11.950;2023-05-20T08:05:18;7.17;;;4.07;;
13014;SDS011;6573;57.696;11.950;2023-05-20T08:07:48;5.10;;;3.50;;
13014;SDS011;6573;57.696;11.950;2023-05-20T08:10:16;6.37;;;3.90;;
13014;SDS011;6573;57.696;11.950;2023-05-20T08:12:45;6.43;;;3.80;;
13014;SDS011;6573;57.696;11.950;2023-05-20T08:15:13;7.13;;;3.93;;
13014;SDS011;6573;57.696;11.950;2023-05-20T08:17:42;5.13;;;3.10;;
13014;SDS011;6573;57.696;11.950;2023-05-20T08:20:11;6.13;;;3.33;;
13014;SDS011;6573;57.696;11.950;2023-05-20T08:22:41;4.73;;;3.13;;
13014;SDS011;6573;57.696;11.950;2023-05-20T08:25:14;5.83;;;3.47;;
13014;SDS011;6573;57.696;11.950;2023-05-20T08:27:42;3.90;;;3.23;;
13014;SDS011;6573;57.696;11.950;2023-05-20T08:30:13;5.23;;;2.80;;
13014;SDS011;6573;57.696;11.950;2023-05-20T08:32:41;5.50;;;2.80;;
13014;SDS011;6573;57.696;11.950;2023-05-20T08:35:10;6.37;;;3.20;;
13014;SDS011;6573;57.696;11.950;2023-05-20T08:37:38;7.10;;;3.07;;
13014;SDS011;6573;57.696;11.950;2023-05-20T08:40:09;5.07;;;2.63;;
13014;SDS011;6573;57.696;11.950;2023-05-20T08:42:41;5.73;;;2.90;;
13014;SDS011;6573;57.696;11.950;2023-05-20T08:45:10;4.03;;;2.70;;
13014;SDS011;6573;57.696;11.950;2023-05-20T08:47:40;6.27;;;2.87;;
13014;SDS011;6573;57.696;11.950;2023-05-20T08:50:10;6.17;;;2.90;;
13014;SDS011;6573;57.696;11.950;2023-05-20T08:52:40;6.63;;;2.60;;
13014;SDS011;6573;57.696;11.950;2023-05-20T08:55:14;4.80;;;2.73;;
13014;SDS011;6573;57.696;11.950;2023-05-20T08:57:48;3.47;;;2.27;;
13014;SDS011;6573;57.696;11.950;2023-05-20T09:00:17;4.23;;;2.47;;
13014;SDS011;6573;57.696;11.950;2023-05-20T09:02:46;3.90;;;2.40;;
13014;SDS011;6573;57.696;11.950;2023-05-20T09:05:15;2.93;;;2.47;;
13014;SDS011;6573;57.696;11.950;2023-05-20T09:07:44;4.40;;;2.70;;
13014;SDS011;6573;57.696;11.950;2023-05-20T09:10:19;4.40;;;2.90;;
13014;SDS011;6573;57.696;11.950;2023-05-20T09:12:47;5.07;;;2.80;;
13014;SDS011;6573;57.696;11.950;2023-05-20T09:15:16;4.33;;;2.97;;
13014;SDS011;6573;57.696;11.950;2023-05-20T09:17:48;4.00;;;2.60;;
13014;SDS011;6573;57.696;11.950;2023-05-20T09:20:17;7.00;;;3.00;;
13014;SDS011;6573;57.696;11.950;2023-05-20T09:22:49;8.23;;;4.00;;
13014;SDS011;6573;57.696;11.950;2023-05-20T09:25:20;6.07;;;2.97;;
13014;SDS011;6573;57.696;11.950;2023-05-20T09:27:49;5.73;;;3.10;;
13014;SDS011;6573;57.696;11.950;2023-05-20T09:30:18;5.40;;;3.03;;
13014;SDS011;6573;57.696;11.950;2023-05-20T09:32:51;5.43;;;2.57;;
13014;SDS011;6573;57.696;11.950;2023-05-20T09:35:20;6.30;;;3.03;;
13014;SDS011;6573;57.696;11.950;2023-05-20T09:37:50;4.60;;;3.40;;
13014;SDS011;6573;57.696;11.950;2023-05-20T09:40:23;5.40;;;2.93;;
13014;SDS011;6573;57.696;11.950;2023-05-20T09:42:55;4.97;;;2.90;;
13014;SDS011;6573;57.696;11.950;2023-05-20T09:45:26;3.70;;;3.00;;
13014;SDS011;6573;57.696;11.950;2023-05-20T09:48:00;3.93;;;3.03;;
13014;SDS011;6573;57.696;11.950;2023-05-20T09:50:32;7.87;;;3.00;;
13014;SDS011;6573;57.696;11.950;2023-05-20T09:53:01;4.70;;;2.80;;
13014;SDS011;6573;57.696;11.950;2023-05-20T09:55:32;6.20;;;3.13;;
13014;SDS011;6573;57.696;11.950;2023-05-20T09:58:01;8.27;;;4.13;;
13014;SDS011;6573;57.696;11.950;2023-05-20T10:00:30;4.60;;;3.70;;
13014;SDS011;6573;57.696;11.950;2023-05-20T10:02:58;7.03;;;3.37;;
13014;SDS011;6573;57.696;11.950;2023-05-20T10:05:31;5.67;;;3.90;;
13014;SDS011;6573;57.696;11.950;2023-05-20T10:08:17;6.30;;;4.10;;
13014;SDS011;6573;57.696;11.950;2023-05-20T10:11:01;8.37;;;4.00;;
13014;SDS011;6573;57.696;11.950;2023-05-20T10:13:52;6.23;;;3.90;;
13014;SDS011;6573;57.696;11.950;2023-05-20T10:16:40;4.43;;;3.50;;
13014;SDS011;6573;57.696;11.950;2023-05-20T10:19:14;5.90;;;4.10;;
13014;SDS011;6573;57.696;11.950;2023-05-20T10:21:58;7.33;;;4.10;;
13014;SDS011;6573;57.696;11.950;2023-05-20T10:24:28;5.47;;;3.90;;
13014;SDS011;6573;57.696;11.950;2023-05-20T10:27:01;13.33;;;4.53;;
13014;SDS011;6573;57.696;11.950;2023-05-20T10:29:41;6.83;;;3.77;;
13014;SDS011;6573;57.696;11.950;2023-05-20T10:32:10;6.57;;;4.20;;
13014;SDS011;6573;57.696;11.950;2023-05-20T10:34:45;6.57;;;4.20;;
13014;SDS011;6573;57.696;11.950;2023-05-20T10:37:23;6.63;;;4.40;;
13014;SDS011;6573;57.696;11.950;2023-05-20T10:40:02;5.97;;;4.13;;
13014;SDS011;6573;57.696;11.950;2023-05-20T10:42:35;10.07;;;3.90;;
13014;SDS011;6573;57.696;11.950;2023-05-20T10:45:03;7.20;;;3.93;;
13014;SDS011;6573;57.696;11.950;2023-05-20T10:47:33;6.47;;;4.03;;
13014;SDS011;6573;57.696;11.950;2023-05-20T10:50:02;5.30;;;4.30;;
13014;SDS011;6573;57.696;11.950;2023-05-20T10:52:32;6.73;;;3.70;;
13014;SDS011;6573;57.696;11.950;2023-05-20T10:55:01;9.10;;;4.50;;
13014;SDS011;6573;57.696;11.950;2023-05-20T10:57:31;6.90;;;4.00;;
13014;SDS011;6573;57.696;11.950;2023-05-20T11:00:02;6.97;;;4.10;;
13014;SDS011;6573;57.696;11.950;2023-05-20T11:02:32;7.37;;;4.53;;
13014;SDS011;6573;57.696;11.950;2023-05-20T11:05:02;5.73;;;4.43;;
13014;SDS011;6573;57.696;11.950;2023-05-20T11:07:32;5.83;;;4.13;;
13014;SDS011;6573;57.696;11.950;2023-05-20T11:10:00;6.73;;;4.60;;
13014;SDS011;6573;57.696;11.950;2023-05-20T11:12:31;7.53;;;4.73;;
13014;SDS011;6573;57.696;11.950;2023-05-20T11:14:59;5.80;;;4.27;;
13014;SDS011;6573;57.696;11.950;2023-05-20T11:17:30;7.93;;;4.47;;
13014;SDS011;6573;57.696;11.950;2023-05-20T11:19:58;7.13;;;4.57;;
13014;SDS011;6573;57.696;11.950;2023-05-20T11:22:31;8.37;;;4.50;;
13014;SDS011;6573;57.696;11.950;2023-05-20T11:25:03;9.23;;;5.10;;
13014;SDS011;6573;57.696;11.950;2023-05-20T11:27:33;7.27;;;4.63;;
13014;SDS011;6573;57.696;11.950;2023-05-20T11:30:03;6.10;;;4.23;;
13014;SDS011;6573;57.696;11.950;2023-05-20T11:32:33;8.37;;;4.53;;
13014;SDS011;6573;57.696;11.950;2023-05-20T11:35:02;12.07;;;4.80;;
13014;SDS011;6573;57.696;11.950;2023-05-20T11:37:30;7.83;;;4.93;;
13014;SDS011;6573;57.696;11.950;2023-05-20T11:40:02;8.17;;;4.90;;
13014;SDS011;6573;57.696;11.950;2023-05-20T11:42:35;8.70;;;4.80;;
13014;SDS011;6573;57.696;11.950;2023-05-20T11:45:06;8.40;;;4.57;;
13014;SDS011;6573;57.696;11.950;2023-05-20T11:47:40;6.63;;;4.60;;
13014;SDS011;6573;57.696;11.950;2023-05-20T11:50:09;8.33;;;4.60;;
13014;SDS011;6573;57.696;11.950;2023-05-20T11:52:43;6.93;;;4.80;;
13014;SDS011;6573;57.696;11.950;2023-05-20T11:55:13;6.30;;;4.70;;
13014;SDS011;6573;57.696;11.950;2023-05-20T11:57:44;5.00;;;4.50;;
13014;SDS011;6573;57.696;11.950;2023-05-20T12:00:14;6.43;;;4.80;;
13014;SDS011;6573;57.696;11.950;2023-05-20T12:02:42;6.53;;;4.60;;
13014;SDS011;6573;57.696;11.950;2023-05-20T12:05:11;8.53;;;4.37;;
13014;SDS011;6573;57.696;11.950;2023-05-20T12:07:40;6.20;;;4.50;;
13014;SDS011;6573;57.696;11.950;2023-05-20T12:10:09;6.63;;;5.10;;
13014;SDS011;6573;57.696;11.950;2023-05-20T12:12:39;9.40;;;4.70;;
13014;SDS011;6573;57.696;11.950;2023-05-20T12:15:08;8.90;;;4.50;;
13014;SDS011;6573;57.696;11.950;2023-05-20T12:17:44;11.60;;;4.77;;
13014;SDS011;6573;57.696;11.950;2023-05-20T12:20:15;8.07;;;4.47;;
13014;SDS011;6573;57.696;11.950;2023-05-20T12:22:45;8.40;;;4.47;;
13014;SDS011;6573;57.696;11.950;2023-05-20T12:25:14;7.23;;;4.60;;
13014;SDS011;6573;57.696;11.950;2023-05-20T12:27:45;6.70;;;4.87;;
13014;SDS011;6573;57.696;11.950;2023-05-20T12:30:16;8.43;;;4.00;;
13014;SDS011;6573;57.696;11.950;2023-05-20T12:32:47;8.00;;;4.67;;
13014;SDS011;6573;57.696;11.950;2023-05-20T12:35:23;8.07;;;4.27;;
13014;SDS011;6573;57.696;11.950;2023-05-20T12:37:51;7.87;;;4.03;;
13014;SDS011;6573;57.696;11.950;2023-05-20T12:40:20;7.27;;;4.33;;
13014;SDS011;6573;57.696;11.950;2023-05-20T12:42:48;5.60;;;4.00;;
13014;SDS011;6573;57.696;11.950;2023-05-20T12:45:17;5.80;;;3.60;;
13014;SDS011;6573;57.696;11.950;2023-05-20T12:47:48;3.77;;;3.40;;
13014;SDS011;6573;57.696;11.950;2023-05-20T12:50:16;5.87;;;4.10;;
13014;SDS011;6573;57.696;11.950;2023-05-20T12:52:45;8.03;;;4.20;;
13014;SDS011;6573;57.696;11.950;2023-05-20T12:55:13;4.67;;;3.63;;
13014;SDS011;6573;57.696;11.950;2023-05-20T12:57:42;4.97;;;3.87;;
13014;SDS011;6573;57.696;11.950;2023-05-20T13:00:11;5.57;;;3.90;;
13014;SDS011;6573;57.696;11.950;2023-05-20T13:02:41;7.17;;;4.13;;
13014;SDS011;6573;57.696;11.950;2023-05-20T13:05:11;5.10;;;3.70;;
13014;SDS011;6573;57.696;11.950;2023-05-20T13:07:40;7.00;;;4.20;;
13014;SDS011;6573;57.696;11.950;2023-05-20T13:10:09;7.37;;;3.60;;
13014;SDS011;6573;57.696;11.950;2023-05-20T13:12:38;5.10;;;3.57;;
13014;SDS011;6573;57.696;11.950;2023-05-20T13:15:11;5.50;;;3.30;;
13014;SDS011;6573;57.696;11.950;2023-05-20T13:17:40;6.53;;;3.70;;
13014;SDS011;6573;57.696;11.950;2023-05-20T13:20:11;6.43;;;3.63;;
13014;SDS011;6573;57.696;11.950;2023-05-20T13:22:40;8.30;;;3.03;;
13014;SDS011;6573;57.696;11.950;2023-05-20T13:25:08;4.73;;;2.93;;
13014;SDS011;6573;57.696;11.950;2023-05-20T13:27:37;4.60;;;3.40;;
13014;SDS011;6573;57.696;11.950;2023-05-20T13:30:06;12.47;;;3.90;;
13014;SDS011;6573;57.696;11.950;2023-05-20T13:32:35;4.40;;;2.77;;
13014;SDS011;6573;57.696;11.950;2023-05-20T13:35:03;6.13;;;3.30;;
13014;SDS011;6573;57.696;11.950;2023-05-20T13:37:34;4.43;;;2.93;;
13014;SDS011;6573;57.696;11.950;2023-05-20T13:40:03;3.50;;;3.17;;
13014;SDS011;6573;57.696;11.950;2023-05-20T13:42:32;5.60;;;3.30;;
13014;SDS011;6573;57.696;11.950;2023-05-20T13:45:00;6.03;;;3.17;;
13014;SDS011;6573;57.696;11.950;2023-05-20T13:47:28;3.83;;;2.90;;
13014;SDS011;6573;57.696;11.950;2023-05-20T13:50:00;4.97;;;3.37;;
13014;SDS011;6573;57.696;11.950;2023-05-20T13:52:29;3.80;;;3.00;;
13014;SDS011;6573;57.696;11.950;2023-05-20T13:54:59;5.77;;;3.43;;
13014;SDS011;6573;57.696;11.950;2023-05-20T13:57:28;9.30;;;3.10;;
13014;SDS011;6573;57.696;11.950;2023-05-20T13:59:56;5.57;;;3.30;;
13014;SDS011;6573;57.696;11.950;2023-05-20T14:02:25;4.80;;;3.47;;
13014;SDS011;6573;57.696;11.950;2023-05-20T14:04:53;5.43;;;3.37;;
13014;SDS011;6573;57.696;11.950;2023-05-20T14:07:21;3.70;;;2.90;;
13014;SDS011;6573;57.696;11.950;2023-05-20T14:09:50;5.07;;;3.47;;
13014;SDS011;6573;57.696;11.950;2023-05-20T14:12:19;4.23;;;2.80;;
13014;SDS011;6573;57.696;11.950;2023-05-20T14:14:50;4.13;;;2.97;;
13014;SDS011;6573;57.696;11.950;2023-05-20T14:17:18;5.43;;;3.07;;
13014;SDS011;6573;57.696;11.950;2023-05-20T14:19:48;5.37;;;3.33;;
13014;SDS011;6573;57.696;11.950;2023-05-20T14:22:16;5.90;;;3.03;;
13014;SDS011;6573;57.696;11.950;2023-05-20T14:24:45;4.17;;;3.10;;
13014;SDS011;6573;57.696;11.950;2023-05-20T14:27:14;5.63;;;3.43;;
13014;SDS011;6573;57.696;11.950;2023-05-20T14:29:46;7.37;;;3.30;;
13014;SDS011;6573;57.696;11.950;2023-05-20T14:32:14;5.20;;;3.10;;
13014;SDS011;6573;57.696;11.950;2023-05-20T14:34:42;4.40;;;2.80;;
13014;SDS011;6573;57.696;11.950;2023-05-20T14:37:11;6.87;;;3.20;;
13014;SDS011;6573;57.696;11.950;2023-05-20T14:39:40;4.20;;;3.17;;
13014;SDS011;6573;57.696;11.950;2023-05-20T14:42:10;10.80;;;3.10;;
13014;SDS011;6573;57.696;11.950;2023-05-20T14:44:38;4.70;;;3.00;;
13014;SDS011;6573;57.696;11.950;2023-05-20T14:47:08;5.13;;;2.70;;
13014;SDS011;6573;57.696;11.950;2023-05-20T14:49:37;5.00;;;3.30;;
13014;SDS011;6573;57.696;11.950;2023-05-20T14:52:07;4.17;;;3.07;;
13014;SDS011;6573;57.696;11.950;2023-05-20T14:54:35;4.17;;;2.73;;
13014;SDS011;6573;57.696;11.950;2023-05-20T14:57:04;5.37;;;2.67;;